createdAt,value
2022-12-05T00:01:23.237Z,8.37
2022-12-05T00:03:50.527Z,8.33
2022-12-05T00:06:17.478Z,8.28
2022-12-05T00:08:44.452Z,8.25
2022-12-05T00:11:14.608Z,8.24
2022-12-05T00:13:41.495Z,8.22
2022-12-05T00:16:12.004Z,8.13
2022-12-05T00:18:38.828Z,8.15
2022-12-05T00:21:08.255Z,8.14
2022-12-05T00:23:37.146Z,7.96
2022-12-05T00:26:06.261Z,7.94
2022-12-05T00:28:33.270Z,7.97
2022-12-05T00:31:10.811Z,8.01
2022-12-05T00:33:37.535Z,8.09
2022-12-05T00:36:07.673Z,8.13
2022-12-05T00:38:37.319Z,8.19
2022-12-05T00:41:07.157Z,8.19
2022-12-05T00:43:33.984Z,8.20
2022-12-05T00:46:01.486Z,8.22
2022-12-05T00:48:28.119Z,8.30
2022-12-05T00:51:10.252Z,8.40
2022-12-05T00:53:39.324Z,8.36
2022-12-05T00:56:07.121Z,8.34
2022-12-05T00:58:33.971Z,8.26
2022-12-05T01:01:09.947Z,8.19
2022-12-05T01:03:37.400Z,8.10
2022-12-05T01:06:06.073Z,8.16
2022-12-05T01:08:33.510Z,8.18
2022-12-05T01:11:00.083Z,8.22
2022-12-05T01:13:27.300Z,8.27
2022-12-05T01:15:53.899Z,8.32
2022-12-05T01:18:20.785Z,8.39
2022-12-05T01:20:47.730Z,8.41
2022-12-05T01:23:16.771Z,8.41
2022-12-05T01:25:43.806Z,8.42
2022-12-05T01:28:10.653Z,8.34
2022-12-05T01:30:38.006Z,8.42
2022-12-05T01:33:07.090Z,8.39
2022-12-05T01:35:34.240Z,8.35
2022-12-05T01:38:01.266Z,8.29
2022-12-05T01:40:27.872Z,8.25
2022-12-05T01:42:54.431Z,8.22
2022-12-05T01:45:23.153Z,8.21
2022-12-05T01:47:49.799Z,8.29
2022-12-05T01:50:18.793Z,8.22
2022-12-05T01:52:45.310Z,8.05
2022-12-05T01:55:12.515Z,8.10
2022-12-05T01:57:39.061Z,8.06
2022-12-05T02:00:09.729Z,8.03
2022-12-05T02:02:39.503Z,8.00
2022-12-05T02:05:09.433Z,7.92
2022-12-05T02:07:36.810Z,7.86
2022-12-05T02:10:06.169Z,7.86
2022-12-05T02:12:32.702Z,7.82
2022-12-05T02:15:03.290Z,7.81
2022-12-05T02:17:29.830Z,7.86
2022-12-05T02:19:56.746Z,7.96
2022-12-05T02:22:38.316Z,8.02
2022-12-05T02:25:07.973Z,8.09
2022-12-05T02:27:49.762Z,8.12
2022-12-05T02:30:16.982Z,8.17
2022-12-05T02:32:57.337Z,8.18
2022-12-05T02:35:26.946Z,7.94
2022-12-05T02:37:53.488Z,7.88
2022-12-05T02:40:22.681Z,7.82
2022-12-05T02:42:50.444Z,7.86
2022-12-05T02:45:17.261Z,7.84
2022-12-05T02:47:51.683Z,7.85
2022-12-05T02:50:38.540Z,7.83
2022-12-05T02:53:08.649Z,7.81
2022-12-05T02:55:35.263Z,7.86
2022-12-05T02:58:03.949Z,7.90
2022-12-05T03:00:30.471Z,7.92
2022-12-05T03:02:57.898Z,7.89
2022-12-05T03:05:33.544Z,7.92
2022-12-05T03:08:04.738Z,7.95
2022-12-05T03:10:32.020Z,7.92
2022-12-05T03:13:02.162Z,7.88
2022-12-05T03:15:31.100Z,7.91
2022-12-05T03:17:59.371Z,7.89
2022-12-05T03:20:32.400Z,7.88
2022-12-05T03:23:09.138Z,7.93
2022-12-05T03:25:38.576Z,8.01
2022-12-05T03:28:17.959Z,8.01
2022-12-05T03:30:44.807Z,8.02
2022-12-05T03:33:11.406Z,8.02
2022-12-05T03:35:53.756Z,8.00
2022-12-05T03:38:25.479Z,8.04
2022-12-05T03:41:01.166Z,8.02
2022-12-05T03:43:42.937Z,7.98
2022-12-05T03:46:09.563Z,7.92
2022-12-05T03:48:42.758Z,7.94
2022-12-05T03:51:12.106Z,8.00
2022-12-05T03:53:42.174Z,8.08
2022-12-05T03:56:09.371Z,8.04
2022-12-05T03:58:42.103Z,8.02
2022-12-05T04:01:11.324Z,8.03
2022-12-05T04:03:52.038Z,8.11
2022-12-05T04:06:21.320Z,8.14
2022-12-05T04:08:48.714Z,8.17
2022-12-05T04:11:17.406Z,8.22
2022-12-05T04:13:49.395Z,8.23
2022-12-05T04:16:38.696Z,8.23
2022-12-05T04:19:05.196Z,8.19
2022-12-05T04:21:39.831Z,8.10
2022-12-05T04:24:26.067Z,8.04
2022-12-05T04:26:54.145Z,7.97
2022-12-05T04:29:27.584Z,8.02
2022-12-05T04:32:00.138Z,8.08
2022-12-05T04:34:29.313Z,8.17
2022-12-05T04:37:07.266Z,8.23
2022-12-05T04:39:35.439Z,8.29
2022-12-05T04:42:12.124Z,8.32
2022-12-05T04:44:40.744Z,8.31
2022-12-05T04:47:08.383Z,8.34
2022-12-05T04:49:35.463Z,8.38
2022-12-05T04:52:07.504Z,8.40
2022-12-05T04:54:38.509Z,8.37
2022-12-05T04:57:06.242Z,8.39
2022-12-05T04:59:32.877Z,8.38
2022-12-05T05:02:07.093Z,8.35
2022-12-05T05:04:38.332Z,8.38
2022-12-05T05:07:08.243Z,8.39
2022-12-05T05:09:34.902Z,8.43
2022-12-05T05:12:01.419Z,8.44
2022-12-05T05:14:33.495Z,8.51
2022-12-05T05:17:00.129Z,8.49
2022-12-05T05:19:26.719Z,8.50
2022-12-05T05:21:53.413Z,8.45
2022-12-05T05:24:21.871Z,8.42
2022-12-05T05:26:53.917Z,8.40
2022-12-05T05:29:26.131Z,8.32
2022-12-05T05:31:52.768Z,8.04
2022-12-05T05:34:19.404Z,8.02
2022-12-05T05:36:46.121Z,8.02
2022-12-05T05:39:14.092Z,7.98
2022-12-05T05:41:40.864Z,7.99
2022-12-05T05:44:07.776Z,8.07
2022-12-05T05:46:37.066Z,8.14
2022-12-05T05:49:03.962Z,8.24
2022-12-05T05:51:33.056Z,8.25
2022-12-05T05:53:59.977Z,8.29
2022-12-05T05:56:26.817Z,8.24
2022-12-05T05:59:03.581Z,8.13
2022-12-05T06:01:30.189Z,8.10
2022-12-05T06:04:05.876Z,8.10
2022-12-05T06:06:32.609Z,8.12
2022-12-05T06:09:01.387Z,8.16
2022-12-05T06:11:27.959Z,8.14
2022-12-05T06:13:55.084Z,8.18
2022-12-05T06:16:27.445Z,8.24
2022-12-05T06:18:54.059Z,8.29
2022-12-05T06:21:21.262Z,8.31
2022-12-05T06:23:52.920Z,8.24
2022-12-05T06:26:20.663Z,8.13
2022-12-05T06:28:47.422Z,8.09
2022-12-05T06:31:19.080Z,8.08
2022-12-05T06:33:45.840Z,8.14
2022-12-05T06:36:15.650Z,8.21
2022-12-05T06:38:42.710Z,8.27
2022-12-05T06:41:10.345Z,8.29
2022-12-05T06:43:39.406Z,8.29
2022-12-05T06:46:06.856Z,8.31
2022-12-05T06:48:33.675Z,8.43
2022-12-05T06:51:00.527Z,8.38
2022-12-05T06:53:29.640Z,8.45
2022-12-05T06:56:00.099Z,8.49
2022-12-05T06:58:26.896Z,8.53
2022-12-05T07:01:14.743Z,8.52
2022-12-05T07:03:41.385Z,8.60
2022-12-05T07:06:08.334Z,8.66
2022-12-05T07:08:39.613Z,8.72
2022-12-05T07:11:06.187Z,8.76
2022-12-05T07:13:32.874Z,8.75
2022-12-05T07:15:59.805Z,8.79
2022-12-05T07:18:26.741Z,8.83
2022-12-05T07:21:14.812Z,8.84
2022-12-05T07:23:42.193Z,8.88
2022-12-05T07:26:09.293Z,8.91
2022-12-05T07:28:35.864Z,8.97
2022-12-05T07:31:03.292Z,8.98
2022-12-05T07:33:30.060Z,8.96
2022-12-05T07:36:00.629Z,8.92
2022-12-05T07:38:27.215Z,8.91
2022-12-05T07:40:53.838Z,8.93
2022-12-05T07:43:23.156Z,8.96
2022-12-05T07:45:49.892Z,9.03
2022-12-05T07:48:19.136Z,8.98
2022-12-05T07:50:45.960Z,8.92
2022-12-05T07:53:15.012Z,8.86
2022-12-05T07:55:41.820Z,8.86
2022-12-05T07:58:08.403Z,8.88
2022-12-05T08:00:36.983Z,8.92
2022-12-05T08:03:05.847Z,8.90
2022-12-05T08:05:35.860Z,8.94
2022-12-05T08:08:02.501Z,9.01
2022-12-05T08:10:29.195Z,8.93
2022-12-05T08:12:55.902Z,8.94
2022-12-05T08:15:24.923Z,8.91
2022-12-05T08:17:51.459Z,8.88
2022-12-05T08:20:20.123Z,8.90
2022-12-05T08:22:51.495Z,8.86
2022-12-05T08:25:18.156Z,8.92
2022-12-05T08:27:47.170Z,8.97
2022-12-05T08:30:13.869Z,8.96
2022-12-05T08:32:40.366Z,9.07
2022-12-05T08:35:07.199Z,9.16
2022-12-05T08:37:33.840Z,9.24
2022-12-05T08:40:00.530Z,9.31
2022-12-05T08:42:27.624Z,9.37
2022-12-05T08:44:56.720Z,9.39
2022-12-05T08:47:25.845Z,9.42
2022-12-05T08:49:52.562Z,9.46
2022-12-05T08:52:19.225Z,9.46
2022-12-05T08:54:45.746Z,9.51
2022-12-05T08:57:14.896Z,9.55
2022-12-05T08:59:41.407Z,9.59
2022-12-05T09:02:08.590Z,9.55
2022-12-05T09:04:35.202Z,9.41
2022-12-05T09:07:02.573Z,9.40
2022-12-05T09:09:29.448Z,9.47
2022-12-05T09:12:01.137Z,9.54
2022-12-05T09:14:32.873Z,9.62
2022-12-05T09:16:59.915Z,9.70
2022-12-05T09:19:27.676Z,9.76
2022-12-05T09:21:57.158Z,9.89
2022-12-05T09:24:23.940Z,9.99
2022-12-05T09:26:52.923Z,10.06
2022-12-05T09:29:19.500Z,10.06
2022-12-05T09:31:47.070Z,10.08
2022-12-05T09:34:15.032Z,10.08
2022-12-05T09:36:41.712Z,9.96
2022-12-05T09:39:08.372Z,9.92
2022-12-05T09:42:05.465Z,9.89
2022-12-05T09:44:42.559Z,9.82
2022-12-05T09:47:12.241Z,9.82
2022-12-05T09:49:39.804Z,9.87
2022-12-05T09:52:08.659Z,9.94
2022-12-05T09:54:35.278Z,9.93
2022-12-05T09:57:01.852Z,9.92
2022-12-05T09:59:28.480Z,9.85
2022-12-05T10:01:55.100Z,9.79
2022-12-05T10:04:24.641Z,9.63
2022-12-05T10:06:54.143Z,9.62
2022-12-05T10:09:25.042Z,9.74
2022-12-05T10:12:15.340Z,9.78
2022-12-05T10:14:49.424Z,9.85
2022-12-05T10:17:24.394Z,9.93
2022-12-05T10:19:51.145Z,9.98
2022-12-05T10:22:23.068Z,10.01
2022-12-05T10:24:51.506Z,10.11
2022-12-05T10:27:24.985Z,10.11
2022-12-05T10:29:58.343Z,10.20
2022-12-05T10:32:48.077Z,10.28
2022-12-05T10:35:14.883Z,10.33
2022-12-05T10:37:42.415Z,10.41
2022-12-05T10:40:11.786Z,10.49
2022-12-05T10:42:38.409Z,10.56
2022-12-05T10:45:06.135Z,10.66
2022-12-05T10:47:33.025Z,10.74
2022-12-05T10:50:06.596Z,10.81
2022-12-05T10:52:35.527Z,10.85
2022-12-05T10:55:09.202Z,10.87
2022-12-05T10:57:35.768Z,11.00
2022-12-05T11:00:13.614Z,11.04
2022-12-05T11:02:41.093Z,11.06
2022-12-05T11:05:07.867Z,10.99
2022-12-05T11:07:43.714Z,10.88
2022-12-05T11:10:26.921Z,10.78
2022-12-05T11:12:55.367Z,10.80
2022-12-05T11:15:24.948Z,10.76
2022-12-05T11:17:57.976Z,10.80
2022-12-05T11:20:25.074Z,10.84
2022-12-05T11:22:52.574Z,10.84
2022-12-05T11:25:28.770Z,10.85
2022-12-05T11:28:01.161Z,10.76
2022-12-05T11:30:33.075Z,10.72
2022-12-05T11:33:19.812Z,10.74
2022-12-05T11:35:49.514Z,10.75
2022-12-05T11:38:17.037Z,10.73
2022-12-05T11:40:47.268Z,10.76
2022-12-05T11:43:32.242Z,10.81
2022-12-05T11:46:09.267Z,10.86
2022-12-05T11:48:51.011Z,10.92
2022-12-05T11:51:20.628Z,10.91
2022-12-05T11:53:53.201Z,10.88
2022-12-05T11:56:28.926Z,10.91
2022-12-05T11:59:15.745Z,10.93
2022-12-05T12:02:01.208Z,10.95
2022-12-05T12:04:33.923Z,10.93
2022-12-05T12:07:12.564Z,10.94
2022-12-05T12:10:00.324Z,10.91
2022-12-05T12:12:46.033Z,10.87
2022-12-05T12:15:27.867Z,10.84
2022-12-05T12:18:15.202Z,10.80
2022-12-05T12:20:49.763Z,10.78
2022-12-05T12:23:21.675Z,10.75
2022-12-05T12:25:57.093Z,10.74
2022-12-05T12:28:29.693Z,10.71
2022-12-05T12:30:59.608Z,10.75
2022-12-05T12:33:27.559Z,10.81
2022-12-05T12:36:07.524Z,10.84
2022-12-05T12:38:51.650Z,10.80
2022-12-05T12:41:24.816Z,10.81
2022-12-05T12:43:57.553Z,10.82
2022-12-05T12:46:42.959Z,10.84
2022-12-05T12:49:09.797Z,10.90
2022-12-05T12:51:40.932Z,10.87
2022-12-05T12:54:13.659Z,10.89
2022-12-05T12:56:57.320Z,10.90
2022-12-05T12:59:50.255Z,10.91
2022-12-05T13:02:23.142Z,10.93
2022-12-05T13:04:53.893Z,10.92
2022-12-05T13:07:23.256Z,10.88
2022-12-05T13:10:19.043Z,10.84
2022-12-05T13:12:45.570Z,10.80
2022-12-05T13:15:19.414Z,10.79
2022-12-05T13:17:46.749Z,10.80
2022-12-05T13:20:17.457Z,10.79
2022-12-05T13:22:48.959Z,10.77
2022-12-05T13:25:16.154Z,10.74
2022-12-05T13:27:55.698Z,10.71
2022-12-05T13:30:22.453Z,10.64
2022-12-05T13:32:51.790Z,10.59
2022-12-05T13:35:18.310Z,10.51
2022-12-05T13:38:04.666Z,10.42
2022-12-05T13:40:52.281Z,10.39
2022-12-05T13:43:20.074Z,10.35
2022-12-05T13:46:05.044Z,10.34
2022-12-05T13:48:31.715Z,10.37
2022-12-05T13:51:08.325Z,10.42
2022-12-05T13:53:35.419Z,10.50
2022-12-05T13:56:05.757Z,10.59
2022-12-05T13:58:43.933Z,10.62
2022-12-05T14:01:37.026Z,10.58
2022-12-05T14:04:22.424Z,10.60
2022-12-05T14:06:52.077Z,10.66
2022-12-05T14:09:28.237Z,10.65
2022-12-05T14:12:12.523Z,10.58
2022-12-05T14:14:57.496Z,10.56
2022-12-05T14:17:34.038Z,10.50
2022-12-05T14:20:07.079Z,10.46
2022-12-05T14:22:52.527Z,10.45
2022-12-05T14:25:25.557Z,10.49
2022-12-05T14:27:56.457Z,10.47
2022-12-05T14:30:24.418Z,10.49
2022-12-05T14:32:51.085Z,10.47
2022-12-05T14:35:18.878Z,10.49
2022-12-05T14:37:55.753Z,10.47
2022-12-05T14:40:32.946Z,10.46
2022-12-05T14:42:59.635Z,10.46
2022-12-05T14:45:26.219Z,10.49
2022-12-05T14:47:54.085Z,10.51
2022-12-05T14:50:40.178Z,10.52
2022-12-05T14:53:22.031Z,10.52
2022-12-05T14:55:49.890Z,10.54
2022-12-05T14:58:19.631Z,10.56
2022-12-05T15:00:54.311Z,10.59
2022-12-05T15:03:24.805Z,10.62
2022-12-05T15:05:55.636Z,10.64
2022-12-05T15:08:25.941Z,10.64
2022-12-05T15:10:52.728Z,10.66
2022-12-05T15:13:20.623Z,10.67
2022-12-05T15:15:50.352Z,10.64
2022-12-05T15:18:16.890Z,10.67
2022-12-05T15:20:46.819Z,10.64
2022-12-05T15:23:34.378Z,10.55
2022-12-05T15:26:23.821Z,10.59
2022-12-05T15:28:59.154Z,10.59
2022-12-05T15:31:28.349Z,10.60
2022-12-05T15:33:55.651Z,10.62
2022-12-05T15:36:25.596Z,10.59
2022-12-05T15:38:52.238Z,10.60
2022-12-05T15:41:21.621Z,10.58
2022-12-05T15:43:55.208Z,10.59
2022-12-05T15:46:27.480Z,10.62
2022-12-05T15:48:54.992Z,10.65
2022-12-05T15:51:21.899Z,10.64
2022-12-05T15:53:52.479Z,10.65
2022-12-05T15:56:20.998Z,10.65
2022-12-05T15:58:49.551Z,10.66
2022-12-05T16:01:21.033Z,10.70
2022-12-05T16:03:58.598Z,10.70
2022-12-05T16:06:25.440Z,10.73
2022-12-05T16:08:52.793Z,10.75
2022-12-05T16:11:21.953Z,10.74
2022-12-05T16:13:51.324Z,10.72
2022-12-05T16:16:21.062Z,10.71
2022-12-05T16:18:59.934Z,10.72
2022-12-05T16:21:38.070Z,10.72
2022-12-05T16:24:15.107Z,10.73
2022-12-05T16:26:41.873Z,10.67
2022-12-05T16:29:46.007Z,10.63
2022-12-05T16:32:22.010Z,10.59
2022-12-05T16:34:48.879Z,10.60
2022-12-05T16:37:25.925Z,10.63
2022-12-05T16:39:52.617Z,10.64
2022-12-05T16:42:23.491Z,10.65
2022-12-05T16:45:03.269Z,10.70
2022-12-05T16:47:42.061Z,10.67
2022-12-05T16:50:20.952Z,10.69
2022-12-05T16:52:49.867Z,10.72
2022-12-05T16:55:18.776Z,10.77
2022-12-05T16:57:50.891Z,10.79
2022-12-05T17:00:22.836Z,10.80
2022-12-05T17:02:52.751Z,10.78
2022-12-05T17:05:19.542Z,10.78
2022-12-05T17:07:46.177Z,10.79
2022-12-05T17:10:13.049Z,10.77
2022-12-05T17:12:42.273Z,10.75
2022-12-05T17:15:21.556Z,10.70
2022-12-05T17:17:48.104Z,10.70
2022-12-05T17:20:15.215Z,10.65
2022-12-05T17:22:44.422Z,10.64
2022-12-05T17:25:18.139Z,10.63
2022-12-05T17:27:49.345Z,10.60
2022-12-05T17:30:15.928Z,10.57
2022-12-05T17:32:42.473Z,10.58
2022-12-05T17:35:18.020Z,10.55
2022-12-05T17:37:47.063Z,10.50
2022-12-05T17:40:16.479Z,10.48
2022-12-05T17:42:43.419Z,10.47
2022-12-05T17:45:11.838Z,10.47
2022-12-05T17:47:38.496Z,10.44
2022-12-05T17:50:11.190Z,10.45
2022-12-05T17:52:37.771Z,10.48
2022-12-05T17:55:20.684Z,10.46
2022-12-05T17:57:47.516Z,10.52
2022-12-05T18:00:14.771Z,10.52
2022-12-05T18:02:41.830Z,10.55
2022-12-05T18:05:11.484Z,10.62
2022-12-05T18:07:40.885Z,10.65
2022-12-05T18:10:12.703Z,10.66
2022-12-05T18:12:44.314Z,10.67
2022-12-05T18:15:13.917Z,10.68
2022-12-05T18:17:46.131Z,10.68
2022-12-05T18:20:15.315Z,10.68
2022-12-05T18:22:42.157Z,10.69
2022-12-05T18:25:09.042Z,10.69
2022-12-05T18:27:35.972Z,10.70
2022-12-05T18:30:03.717Z,10.72
2022-12-05T18:32:30.331Z,10.67
2022-12-05T18:34:59.025Z,10.66
2022-12-05T18:37:28.229Z,10.67
2022-12-05T18:39:56.362Z,10.68
2022-12-05T18:42:23.170Z,10.66
2022-12-05T18:44:49.910Z,10.65
2022-12-05T18:47:18.766Z,10.64
2022-12-05T18:49:48.776Z,10.63
2022-12-05T18:52:15.313Z,10.63
2022-12-05T18:54:41.871Z,10.64
2022-12-05T18:57:12.135Z,10.66
2022-12-05T18:59:38.747Z,10.62
2022-12-05T19:02:05.976Z,10.61
2022-12-05T19:04:34.928Z,10.64
2022-12-05T19:07:04.754Z,10.68
2022-12-05T19:09:35.954Z,10.72
2022-12-05T19:12:05.020Z,10.72
2022-12-05T19:14:33.320Z,10.66
2022-12-05T19:17:01.858Z,10.66
2022-12-05T19:19:29.370Z,10.65
2022-12-05T19:21:56.173Z,10.60
2022-12-05T19:24:23.950Z,10.57
2022-12-05T19:26:50.553Z,10.54
2022-12-05T19:29:17.390Z,10.54
2022-12-05T19:31:48.740Z,10.52
2022-12-05T19:34:24.427Z,10.52
2022-12-05T19:36:53.782Z,10.56
2022-12-05T19:39:26.704Z,10.49
2022-12-05T19:41:55.188Z,10.46
2022-12-05T19:44:21.704Z,10.41
2022-12-05T19:46:53.180Z,10.32
2022-12-05T19:49:19.732Z,10.37
2022-12-05T19:51:46.628Z,10.37
2022-12-05T19:54:13.675Z,10.38
2022-12-05T19:56:42.952Z,10.40
2022-12-05T19:59:10.328Z,10.45
2022-12-05T20:01:40.315Z,10.45
2022-12-05T20:04:08.413Z,10.39
2022-12-05T20:06:40.972Z,10.38
2022-12-05T20:09:08.032Z,10.41
2022-12-05T20:11:40.751Z,10.42
2022-12-05T20:14:07.833Z,10.42
2022-12-05T20:16:35.556Z,10.40
2022-12-05T20:19:05.325Z,10.42
2022-12-05T20:21:32.543Z,10.33
2022-12-05T20:24:00.735Z,10.16
2022-12-05T20:26:31.008Z,10.17
2022-12-05T20:29:00.628Z,10.14
2022-12-05T20:31:31.389Z,10.20
2022-12-05T20:33:58.031Z,10.24
2022-12-05T20:36:25.691Z,10.27
2022-12-05T20:38:56.747Z,10.23
2022-12-05T20:41:23.516Z,10.23
2022-12-05T20:43:53.438Z,10.27
2022-12-05T20:46:20.490Z,10.31
2022-12-05T20:48:48.194Z,10.36
2022-12-05T20:51:15.430Z,10.39
2022-12-05T20:53:45.047Z,10.43
2022-12-05T20:56:16.442Z,10.44
2022-12-05T20:58:49.339Z,10.45
2022-12-05T21:01:16.669Z,10.46
2022-12-05T21:03:43.951Z,10.43
2022-12-05T21:06:11.539Z,10.41
2022-12-05T21:08:38.376Z,10.42
2022-12-05T21:11:05.217Z,10.45
2022-12-05T21:13:31.989Z,10.46
2022-12-05T21:16:01.480Z,10.48
2022-12-05T21:18:28.635Z,10.47
2022-12-05T21:20:58.835Z,10.43
2022-12-05T21:23:25.757Z,10.43
2022-12-05T21:25:54.652Z,10.40
2022-12-05T21:28:21.361Z,10.42
2022-12-05T21:30:48.051Z,10.41
2022-12-05T21:33:17.268Z,10.41
2022-12-05T21:35:43.927Z,10.42
2022-12-05T21:38:12.792Z,10.43
2022-12-05T21:40:44.204Z,10.44
2022-12-05T21:43:10.765Z,10.46
2022-12-05T21:45:43.054Z,10.44
2022-12-05T21:48:10.879Z,10.46
2022-12-05T21:50:42.541Z,10.45
2022-12-05T21:53:11.428Z,10.46
2022-12-05T21:55:41.823Z,10.45
2022-12-05T21:58:08.433Z,10.47
2022-12-05T22:00:37.431Z,10.44
2022-12-05T22:03:04.389Z,10.40
2022-12-05T22:05:33.473Z,10.41
2022-12-05T22:08:06.467Z,10.40
2022-12-05T22:10:34.227Z,10.36
2022-12-05T22:13:03.172Z,10.40
2022-12-05T22:15:32.117Z,10.43
2022-12-05T22:17:58.661Z,10.40
2022-12-05T22:20:25.198Z,10.41
2022-12-05T22:22:54.548Z,10.44
2022-12-05T22:25:21.063Z,10.43
2022-12-05T22:27:47.639Z,10.45
2022-12-05T22:30:14.363Z,10.42
2022-12-05T22:32:40.930Z,10.45
2022-12-05T22:35:07.692Z,10.45
2022-12-05T22:37:34.507Z,10.44
2022-12-05T22:40:06.138Z,10.41
2022-12-05T22:42:32.721Z,10.41
2022-12-05T22:45:01.883Z,10.40
2022-12-05T22:47:30.866Z,10.44
2022-12-05T22:49:57.837Z,10.45
2022-12-05T22:52:24.564Z,10.45
2022-12-05T22:54:53.974Z,10.43
2022-12-05T22:57:20.487Z,10.42
2022-12-05T22:59:49.396Z,10.36
2022-12-05T23:02:15.954Z,10.31
2022-12-05T23:04:44.926Z,10.27
2022-12-05T23:07:11.603Z,10.25
2022-12-05T23:09:40.555Z,10.18
2022-12-05T23:12:07.317Z,10.13
2022-12-05T23:14:33.804Z,10.19
2022-12-05T23:17:00.288Z,10.22
2022-12-05T23:19:27.235Z,10.12
2022-12-05T23:21:56.595Z,10.10
2022-12-05T23:24:23.115Z,10.07
2022-12-05T23:26:49.609Z,10.09
2022-12-05T23:29:20.310Z,10.13
2022-12-05T23:31:49.451Z,10.18
2022-12-05T23:34:15.962Z,10.19
2022-12-05T23:36:44.708Z,10.24
2022-12-05T23:39:11.252Z,10.26
2022-12-05T23:41:37.746Z,10.26
2022-12-05T23:44:04.376Z,10.24
2022-12-05T23:46:30.943Z,10.24
2022-12-05T23:48:58.108Z,10.23
2022-12-05T23:51:28.021Z,10.23
2022-12-05T23:54:00.600Z,10.23
2022-12-05T23:56:29.027Z,10.21
2022-12-05T23:58:55.746Z,10.21
